sensor_id;sensor_type;location;lat;lon;timestamp;pressure;altitude;pressure_sealevel;temperature;humidity
19108;BME280;9686;48.832;9.126;2023-04-24T00:02:08;97143.72;;;12.61;nan
19108;BME280;9686;48.832;9.126;2023-04-24T00:04:37;97154.13;;;12.62;nan
19108;BME280;9686;48.832;9.126;2023-04-24T00:07:05;97143.28;;;12.75;nan
19108;BME280;9686;48.832;9.126;2023-04-24T00:09:32;97140.06;;;12.66;nan
19108;BME280;9686;48.832;9.126;2023-04-24T00:11:57;97149.72;;;12.64;nan
19108;BME280;9686;48.832;9.126;2023-04-24T00:14:22;97153.19;;;12.65;nan
19108;BME280;9686;48.832;9.126;2023-04-24T00:16:48;97167.00;;;12.69;nan
19108;BME280;9686;48.832;9.126;2023-04-24T00:19:13;97160.72;;;12.76;nan
19108;BME280;9686;48.832;9.126;2023-04-24T00:21:38;97159.75;;;12.78;nan
19108;BME280;9686;48.832;9.126;2023-04-24T00:24:04;97147.00;;;12.68;nan
19108;BME280;9686;48.832;9.126;2023-04-24T00:26:30;97158.03;;;12.77;nan
19108;BME280;9686;48.832;9.126;2023-04-24T00:28:55;97162.50;;;12.74;nan
19108;BME280;9686;48.832;9.126;2023-04-24T00:31:20;97164.19;;;12.75;nan
19108;BME280;9686;48.832;9.126;2023-04-24T00:33:45;97161.13;;;12.90;nan
19108;BME280;9686;48.832;9.126;2023-04-24T00:36:11;97162.97;;;12.86;nan
19108;BME280;9686;48.832;9.126;2023-04-24T00:38:36;97165.78;;;12.80;nan
19108;BME280;9686;48.832;9.126;2023-04-24T00:41:01;97154.31;;;12.84;nan
19108;BME280;9686;48.832;9.126;2023-04-24T00:43:27;97151.75;;;12.83;nan
19108;BME280;9686;48.832;9.126;2023-04-24T00:45:52;97147.38;;;12.83;nan
19108;BME280;9686;48.832;9.126;2023-04-24T00:48:17;97154.16;;;12.89;nan
19108;BME280;9686;48.832;9.126;2023-04-24T00:50:43;97152.25;;;12.94;nan
19108;BME280;9686;48.832;9.126;2023-04-24T00:53:09;97138.97;;;13.00;nan
19108;BME280;9686;48.832;9.126;2023-04-24T00:55:34;97146.28;;;12.90;nan
19108;BME280;9686;48.832;9.126;2023-04-24T00:58:02;97141.59;;;13.00;nan
19108;BME280;9686;48.832;9.126;2023-04-24T01:00:27;97143.28;;;13.03;nan
19108;BME280;9686;48.832;9.126;2023-04-24T01:02:53;97135.44;;;13.03;nan
19108;BME280;9686;48.832;9.126;2023-04-24T01:05:18;97137.56;;;12.90;nan
19108;BME280;9686;48.832;9.126;2023-04-24T01:07:45;97129.41;;;12.99;nan
19108;BME280;9686;48.832;9.126;2023-04-24T01:10:13;97125.13;;;12.96;nan
19108;BME280;9686;48.832;9.126;2023-04-24T01:12:38;97139.81;;;13.02;nan
19108;BME280;9686;48.832;9.126;2023-04-24T01:15:05;97128.81;;;12.91;nan
19108;BME280;9686;48.832;9.126;2023-04-24T01:17:31;97131.59;;;12.86;nan
19108;BME280;9686;48.832;9.126;2023-04-24T01:19:57;97123.28;;;13.00;nan
19108;BME280;9686;48.832;9.126;2023-04-24T01:22:23;97126.09;;;12.94;nan
19108;BME280;9686;48.832;9.126;2023-04-24T01:24:48;97115.47;;;12.98;nan
19108;BME280;9686;48.832;9.126;2023-04-24T01:27:14;97121.06;;;12.88;nan
19108;BME280;9686;48.832;9.126;2023-04-24T01:29:39;97119.41;;;12.85;nan
19108;BME280;9686;48.832;9.126;2023-04-24T01:32:05;97122.09;;;12.84;nan
19108;BME280;9686;48.832;9.126;2023-04-24T01:34:31;97106.34;;;12.85;nan
19108;BME280;9686;48.832;9.126;2023-04-24T01:36:57;97108.38;;;12.77;nan
19108;BME280;9686;48.832;9.126;2023-04-24T01:39:22;97103.34;;;12.70;nan
19108;BME280;9686;48.832;9.126;2023-04-24T01:41:50;97105.13;;;12.69;nan
19108;BME280;9686;48.832;9.126;2023-04-24T01:44:16;97104.94;;;12.75;nan
19108;BME280;9686;48.832;9.126;2023-04-24T01:46:42;97096.03;;;12.81;nan
19108;BME280;9686;48.832;9.126;2023-04-24T01:49:07;97101.31;;;12.79;nan
19108;BME280;9686;48.832;9.126;2023-04-24T01:51:33;97104.16;;;12.72;nan
19108;BME280;9686;48.832;9.126;2023-04-24T01:53:58;97101.53;;;12.72;nan
19108;BME280;9686;48.832;9.126;2023-04-24T01:56:24;97103.25;;;12.73;nan
19108;BME280;9686;48.832;9.126;2023-04-24T01:58:52;97107.03;;;12.64;nan
19108;BME280;9686;48.832;9.126;2023-04-24T02:01:19;97106.03;;;12.68;nan
19108;BME280;9686;48.832;9.126;2023-04-24T02:03:45;97108.75;;;12.65;nan
19108;BME280;9686;48.832;9.126;2023-04-24T02:06:10;97094.81;;;12.64;nan
19108;BME280;9686;48.832;9.126;2023-04-24T02:08:35;97106.28;;;12.60;nan
19108;BME280;9686;48.832;9.126;2023-04-24T02:11:00;97101.09;;;12.59;nan
19108;BME280;9686;48.832;9.126;2023-04-24T02:13:27;97109.81;;;12.59;nan
19108;BME280;9686;48.832;9.126;2023-04-24T02:15:52;97113.56;;;12.51;nan
19108;BME280;9686;48.832;9.126;2023-04-24T02:18:18;97112.47;;;12.58;nan
19108;BME280;9686;48.832;9.126;2023-04-24T02:20:43;97115.84;;;12.61;nan
19108;BME280;9686;48.832;9.126;2023-04-24T02:23:08;97114.94;;;12.62;nan
19108;BME280;9686;48.832;9.126;2023-04-24T02:25:34;97115.03;;;12.59;nan
19108;BME280;9686;48.832;9.126;2023-04-24T02:27:59;97106.28;;;12.60;nan
19108;BME280;9686;48.832;9.126;2023-04-24T02:30:24;97117.38;;;12.67;nan
19108;BME280;9686;48.832;9.126;2023-04-24T02:32:50;97119.91;;;12.70;nan
19108;BME280;9686;48.832;9.126;2023-04-24T02:35:15;97124.22;;;12.71;nan
19108;BME280;9686;48.832;9.126;2023-04-24T02:37:41;97130.22;;;12.75;nan
19108;BME280;9686;48.832;9.126;2023-04-24T02:40:07;97125.66;;;12.81;nan
19108;BME280;9686;48.832;9.126;2023-04-24T02:42:32;97131.47;;;12.63;nan
19108;BME280;9686;48.832;9.126;2023-04-24T02:44:57;97135.09;;;12.59;nan
19108;BME280;9686;48.832;9.126;2023-04-24T02:47:23;97145.59;;;12.57;nan
19108;BME280;9686;48.832;9.126;2023-04-24T02:49:48;97141.47;;;12.49;nan
19108;BME280;9686;48.832;9.126;2023-04-24T02:52:14;97136.25;;;12.49;nan
19108;BME280;9686;48.832;9.126;2023-04-24T02:54:39;97135.50;;;12.45;nan
19108;BME280;9686;48.832;9.126;2023-04-24T02:57:05;97118.50;;;12.32;nan
19108;BME280;9686;48.832;9.126;2023-04-24T02:59:31;97124.34;;;12.40;nan
19108;BME280;9686;48.832;9.126;2023-04-24T03:01:57;97125.34;;;12.36;nan
19108;BME280;9686;48.832;9.126;2023-04-24T03:04:22;97120.16;;;12.34;nan
19108;BME280;9686;48.832;9.126;2023-04-24T03:06:48;97123.72;;;12.32;nan
19108;BME280;9686;48.832;9.126;2023-04-24T03:09:13;97117.84;;;12.25;nan
19108;BME280;9686;48.832;9.126;2023-04-24T03:11:38;97110.84;;;12.26;nan
19108;BME280;9686;48.832;9.126;2023-04-24T03:14:03;97113.41;;;12.27;nan
19108;BME280;9686;48.832;9.126;2023-04-24T03:16:29;97116.94;;;12.26;nan
19108;BME280;9686;48.832;9.126;2023-04-24T03:18:54;97121.47;;;12.20;nan
19108;BME280;9686;48.832;9.126;2023-04-24T03:21:20;97117.84;;;12.25;nan
19108;BME280;9686;48.832;9.126;2023-04-24T03:23:45;97119.75;;;12.19;nan
19108;BME280;9686;48.832;9.126;2023-04-24T03:26:10;97118.00;;;12.19;nan
19108;BME280;9686;48.832;9.126;2023-04-24T03:28:36;97116.47;;;12.12;nan
19108;BME280;9686;48.832;9.126;2023-04-24T03:31:02;97116.38;;;12.15;nan
19108;BME280;9686;48.832;9.126;2023-04-24T03:33:28;97109.22;;;12.22;nan
19108;BME280;9686;48.832;9.126;2023-04-24T03:35:53;97113.69;;;12.18;nan
19108;BME280;9686;48.832;9.126;2023-04-24T03:38:18;97099.75;;;12.18;nan
19108;BME280;9686;48.832;9.126;2023-04-24T03:40:44;97104.13;;;12.17;nan
19108;BME280;9686;48.832;9.126;2023-04-24T03:43:09;97102.00;;;12.02;nan
19108;BME280;9686;48.832;9.126;2023-04-24T03:45:34;97107.31;;;11.99;nan
19108;BME280;9686;48.832;9.126;2023-04-24T03:47:59;97111.97;;;11.88;nan
19108;BME280;9686;48.832;9.126;2023-04-24T03:50:25;97105.00;;;11.88;nan
19108;BME280;9686;48.832;9.126;2023-04-24T03:52:51;97108.56;;;11.86;nan
19108;BME280;9686;48.832;9.126;2023-04-24T03:55:17;97115.50;;;11.87;nan
19108;BME280;9686;48.832;9.126;2023-04-24T03:57:42;97109.41;;;11.86;nan
19108;BME280;9686;48.832;9.126;2023-04-24T04:00:08;97113.00;;;11.82;nan
19108;BME280;9686;48.832;9.126;2023-04-24T04:02:34;97121.75;;;11.81;nan
19108;BME280;9686;48.832;9.126;2023-04-24T04:04:59;97120.66;;;11.88;nan
19108;BME280;9686;48.832;9.126;2023-04-24T04:07:24;97127.50;;;11.92;nan
19108;BME280;9686;48.832;9.126;2023-04-24T04:09:50;97126.75;;;11.89;nan
19108;BME280;9686;48.832;9.126;2023-04-24T04:12:15;97142.31;;;11.92;nan
19108;BME280;9686;48.832;9.126;2023-04-24T04:14:41;97142.31;;;11.92;nan
19108;BME280;9686;48.832;9.126;2023-04-24T04:17:06;97147.28;;;12.01;nan
19108;BME280;9686;48.832;9.126;2023-04-24T04:19:31;97189.19;;;11.96;nan
19108;BME280;9686;48.832;9.126;2023-04-24T04:21:57;97189.50;;;11.86;nan
19108;BME280;9686;48.832;9.126;2023-04-24T04:24:22;97189.91;;;11.69;nan
19108;BME280;9686;48.832;9.126;2023-04-24T04:26:49;97189.19;;;11.64;nan
19108;BME280;9686;48.832;9.126;2023-04-24T04:29:16;97191.88;;;11.61;nan
19108;BME280;9686;48.832;9.126;2023-04-24T04:31:41;97193.59;;;11.62;nan
19108;BME280;9686;48.832;9.126;2023-04-24T04:34:07;97193.56;;;11.63;nan
19108;BME280;9686;48.832;9.126;2023-04-24T04:36:33;97198.09;;;11.57;nan
19108;BME280;9686;48.832;9.126;2023-04-24T04:39:02;97198.16;;;11.54;nan
19108;BME280;9686;48.832;9.126;2023-04-24T04:41:27;97206.94;;;11.51;nan
19108;BME280;9686;48.832;9.126;2023-04-24T04:43:53;97213.13;;;11.47;nan
19108;BME280;9686;48.832;9.126;2023-04-24T04:46:18;97205.59;;;11.35;nan
19108;BME280;9686;48.832;9.126;2023-04-24T04:48:43;97209.19;;;11.31;nan
19108;BME280;9686;48.832;9.126;2023-04-24T04:51:09;97214.59;;;11.23;nan
19108;BME280;9686;48.832;9.126;2023-04-24T04:53:35;97219.78;;;11.25;nan
19108;BME280;9686;48.832;9.126;2023-04-24T04:56:00;97219.88;;;11.22;nan
19108;BME280;9686;48.832;9.126;2023-04-24T04:58:25;97232.81;;;11.25;nan
19108;BME280;9686;48.832;9.126;2023-04-24T05:00:51;97236.44;;;11.19;nan
19108;BME280;9686;48.832;9.126;2023-04-24T05:03:17;97237.34;;;11.17;nan
19108;BME280;9686;48.832;9.126;2023-04-24T05:05:42;97234.75;;;11.17;nan
19108;BME280;9686;48.832;9.126;2023-04-24T05:08:08;97245.94;;;11.22;nan
19108;BME280;9686;48.832;9.126;2023-04-24T05:10:33;97251.28;;;11.16;nan
19108;BME280;9686;48.832;9.126;2023-04-24T05:12:58;97261.44;;;11.28;nan
19108;BME280;9686;48.832;9.126;2023-04-24T05:15:24;97261.44;;;11.28;nan
19108;BME280;9686;48.832;9.126;2023-04-24T05:17:49;97263.03;;;11.33;nan
19108;BME280;9686;48.832;9.126;2023-04-24T05:20:15;97258.94;;;11.23;nan
19108;BME280;9686;48.832;9.126;2023-04-24T05:22:40;97256.94;;;11.34;nan
19108;BME280;9686;48.832;9.126;2023-04-24T05:25:06;97260.44;;;11.33;nan
19108;BME280;9686;48.832;9.126;2023-04-24T05:27:31;97265.56;;;11.36;nan
19108;BME280;9686;48.832;9.126;2023-04-24T05:29:56;97268.97;;;11.40;nan
19108;BME280;9686;48.832;9.126;2023-04-24T05:32:22;97275.06;;;11.39;nan
19108;BME280;9686;48.832;9.126;2023-04-24T05:34:47;97280.91;;;11.50;nan
19108;BME280;9686;48.832;9.126;2023-04-24T05:37:12;97283.56;;;11.49;nan
19108;BME280;9686;48.832;9.126;2023-04-24T05:39:38;97286.41;;;11.38;nan
19108;BME280;9686;48.832;9.126;2023-04-24T05:42:03;97294.38;;;11.32;nan
19108;BME280;9686;48.832;9.126;2023-04-24T05:44:29;97303.38;;;11.19;nan
19108;BME280;9686;48.832;9.126;2023-04-24T05:46:55;97308.31;;;11.31;nan
19108;BME280;9686;48.832;9.126;2023-04-24T05:49:21;97298.97;;;11.22;nan
19108;BME280;9686;48.832;9.126;2023-04-24T05:51:46;97302.31;;;11.27;nan
19108;BME280;9686;48.832;9.126;2023-04-24T05:54:11;97306.88;;;11.19;nan
19108;BME280;9686;48.832;9.126;2023-04-24T05:56:37;97307.50;;;11.29;nan
19108;BME280;9686;48.832;9.126;2023-04-24T05:59:03;97309.09;;;11.34;nan
19108;BME280;9686;48.832;9.126;2023-04-24T06:01:28;97307.34;;;11.35;nan
19108;BME280;9686;48.832;9.126;2023-04-24T06:03:55;97316.34;;;11.23;nan
19108;BME280;9686;48.832;9.126;2023-04-24T06:06:20;97323.38;;;11.18;nan
19108;BME280;9686;48.832;9.126;2023-04-24T06:08:45;97317.16;;;11.25;nan
19108;BME280;9686;48.832;9.126;2023-04-24T06:11:11;97316.97;;;11.33;nan
19108;BME280;9686;48.832;9.126;2023-04-24T06:13:36;97314.63;;;11.22;nan
19108;BME280;9686;48.832;9.126;2023-04-24T06:16:02;97316.94;;;11.34;nan
19108;BME280;9686;48.832;9.126;2023-04-24T06:18:27;97315.03;;;11.41;nan
19108;BME280;9686;48.832;9.126;2023-04-24T06:20:52;97322.34;;;11.62;nan
19108;BME280;9686;48.832;9.126;2023-04-24T06:23:18;97314.47;;;11.64;nan
19108;BME280;9686;48.832;9.126;2023-04-24T06:25:43;97309.63;;;11.86;nan
19108;BME280;9686;48.832;9.126;2023-04-24T06:28:08;97308.50;;;11.94;nan
19108;BME280;9686;48.832;9.126;2023-04-24T06:30:33;97303.03;;;12.05;nan
19108;BME280;9686;48.832;9.126;2023-04-24T06:32:59;97295.91;;;12.10;nan
19108;BME280;9686;48.832;9.126;2023-04-24T06:35:24;97306.88;;;12.24;nan
19108;BME280;9686;48.832;9.126;2023-04-24T06:37:51;97300.34;;;12.39;nan
19108;BME280;9686;48.832;9.126;2023-04-24T06:40:16;97300.00;;;12.51;nan
19108;BME280;9686;48.832;9.126;2023-04-24T06:42:43;97311.09;;;12.59;nan
19108;BME280;9686;48.832;9.126;2023-04-24T06:45:09;97301.81;;;12.79;nan
19108;BME280;9686;48.832;9.126;2023-04-24T06:47:35;97311.47;;;12.77;nan
19108;BME280;9686;48.832;9.126;2023-04-24T06:50:00;97304.22;;;12.86;nan
19108;BME280;9686;48.832;9.126;2023-04-24T06:52:25;97302.25;;;12.93;nan
19108;BME280;9686;48.832;9.126;2023-04-24T06:54:51;97309.06;;;12.98;nan
19108;BME280;9686;48.832;9.126;2023-04-24T06:57:17;97307.03;;;13.08;nan
19108;BME280;9686;48.832;9.126;2023-04-24T06:59:43;97310.00;;;13.25;nan
19108;BME280;9686;48.832;9.126;2023-04-24T07:02:08;97298.69;;;13.25;nan
19108;BME280;9686;48.832;9.126;2023-04-24T07:04:33;97296.06;;;13.25;nan
19108;BME280;9686;48.832;9.126;2023-04-24T07:06:59;97301.31;;;13.51;nan
19108;BME280;9686;48.832;9.126;2023-04-24T07:09:25;97302.22;;;13.50;nan
19108;BME280;9686;48.832;9.126;2023-04-24T07:11:51;97304.84;;;13.50;nan
19108;BME280;9686;48.832;9.126;2023-04-24T07:14:17;97308.38;;;13.49;nan
19108;BME280;9686;48.832;9.126;2023-04-24T07:16:43;97306.41;;;13.30;nan
19108;BME280;9686;48.832;9.126;2023-04-24T07:19:08;97314.00;;;13.37;nan
19108;BME280;9686;48.832;9.126;2023-04-24T07:21:34;97314.31;;;13.28;nan
19108;BME280;9686;48.832;9.126;2023-04-24T07:23:59;97319.66;;;13.23;nan
19108;BME280;9686;48.832;9.126;2023-04-24T07:26:26;97316.94;;;13.28;nan
19108;BME280;9686;48.832;9.126;2023-04-24T07:28:51;97312.81;;;13.19;nan
19108;BME280;9686;48.832;9.126;2023-04-24T07:31:17;97317.59;;;13.35;nan
19108;BME280;9686;48.832;9.126;2023-04-24T07:33:42;97321.53;;;13.48;nan
19108;BME280;9686;48.832;9.126;2023-04-24T07:36:07;97329.06;;;13.58;nan
19108;BME280;9686;48.832;9.126;2023-04-24T07:38:33;97321.03;;;13.63;nan
19108;BME280;9686;48.832;9.126;2023-04-24T07:40:58;97325.09;;;13.72;nan
19108;BME280;9686;48.832;9.126;2023-04-24T07:43:23;97328.91;;;13.89;nan
19108;BME280;9686;48.832;9.126;2023-04-24T07:45:50;97337.88;;;13.82;nan
19108;BME280;9686;48.832;9.126;2023-04-24T07:48:16;97340.53;;;13.81;nan
19108;BME280;9686;48.832;9.126;2023-04-24T07:50:43;97345.63;;;13.85;nan
19108;BME280;9686;48.832;9.126;2023-04-24T07:53:08;97331.19;;;13.99;nan
19108;BME280;9686;48.832;9.126;2023-04-24T07:55:33;97347.19;;;13.91;nan
19108;BME280;9686;48.832;9.126;2023-04-24T07:57:59;97346.53;;;13.84;nan
19108;BME280;9686;48.832;9.126;2023-04-24T08:00:24;97352.09;;;13.74;nan
19108;BME280;9686;48.832;9.126;2023-04-24T08:02:49;97358.06;;;13.51;nan
19108;BME280;9686;48.832;9.126;2023-04-24T08:05:15;97358.66;;;13.33;nan
19108;BME280;9686;48.832;9.126;2023-04-24T08:07:40;97362.22;;;13.58;nan
19108;BME280;9686;48.832;9.126;2023-04-24T08:10:09;97364.66;;;13.64;nan
19108;BME280;9686;48.832;9.126;2023-04-24T08:12:35;97368.03;;;13.68;nan
19108;BME280;9686;48.832;9.126;2023-04-24T08:15:00;97377.00;;;13.61;nan
19108;BME280;9686;48.832;9.126;2023-04-24T08:17:26;97376.75;;;13.68;nan
19108;BME280;9686;48.832;9.126;2023-04-24T08:19:51;97380.16;;;13.70;nan
19108;BME280;9686;48.832;9.126;2023-04-24T08:22:18;97378.47;;;13.41;nan
19108;BME280;9686;48.832;9.126;2023-04-24T08:24:43;97373.06;;;13.18;nan
19108;BME280;9686;48.832;9.126;2023-04-24T08:27:09;97375.38;;;13.29;nan
19108;BME280;9686;48.832;9.126;2023-04-24T08:29:35;97396.66;;;13.15;nan
19108;BME280;9686;48.832;9.126;2023-04-24T08:32:01;97387.00;;;13.17;nan
19108;BME280;9686;48.832;9.126;2023-04-24T08:34:26;97406.09;;;13.22;nan
19108;BME280;9686;48.832;9.126;2023-04-24T08:36:51;97396.38;;;13.25;nan
19108;BME280;9686;48.832;9.126;2023-04-24T08:39:17;97398.31;;;13.19;nan
19108;BME280;9686;48.832;9.126;2023-04-24T08:41:43;97396.47;;;13.22;nan
19108;BME280;9686;48.832;9.126;2023-04-24T08:44:09;97404.53;;;13.15;nan
19108;BME280;9686;48.832;9.126;2023-04-24T08:46:35;97414.38;;;13.07;nan
19108;BME280;9686;48.832;9.126;2023-04-24T08:49:01;97418.56;;;13.12;nan
19108;BME280;9686;48.832;9.126;2023-04-24T08:51:27;97416.25;;;13.02;nan
19108;BME280;9686;48.832;9.126;2023-04-24T08:53:54;97425.59;;;13.10;nan
19108;BME280;9686;48.832;9.126;2023-04-24T08:56:21;97424.66;;;13.13;nan
19108;BME280;9686;48.832;9.126;2023-04-24T08:58:49;97432.25;;;13.22;nan
19108;BME280;9686;48.832;9.126;2023-04-24T09:01:15;97439.47;;;13.43;nan
19108;BME280;9686;48.832;9.126;2023-04-24T09:03:41;97429.25;;;13.36;nan
19108;BME280;9686;48.832;9.126;2023-04-24T09:06:09;97423.78;;;13.43;nan
19108;BME280;9686;48.832;9.126;2023-04-24T09:08:35;97438.34;;;13.52;nan
19108;BME280;9686;48.832;9.126;2023-04-24T09:11:01;97435.28;;;13.38;nan
19108;BME280;9686;48.832;9.126;2023-04-24T09:13:28;97447.34;;;13.12;nan
19108;BME280;9686;48.832;9.126;2023-04-24T09:15:55;97454.84;;;12.93;nan
19108;BME280;9686;48.832;9.126;2023-04-24T09:18:22;97477.78;;;12.84;nan
19108;BME280;9686;48.832;9.126;2023-04-24T09:21:06;97474.09;;;12.58;nan
19108;BME280;9686;48.832;9.126;2023-04-24T09:23:32;97455.97;;;12.52;nan
19108;BME280;9686;48.832;9.126;2023-04-24T09:25:59;97463.16;;;12.43;nan
19108;BME280;9686;48.832;9.126;2023-04-24T09:28:37;97464.44;;;12.60;nan
19108;BME280;9686;48.832;9.126;2023-04-24T09:31:12;97460.34;;;12.52;nan
19108;BME280;9686;48.832;9.126;2023-04-24T09:33:39;97468.19;;;12.52;nan
19108;BME280;9686;48.832;9.126;2023-04-24T09:36:04;97459.72;;;12.41;nan
19108;BME280;9686;48.832;9.126;2023-04-24T09:38:35;97453.06;;;12.63;nan
19108;BME280;9686;48.832;9.126;2023-04-24T09:41:02;97465.53;;;12.86;nan
19108;BME280;9686;48.832;9.126;2023-04-24T09:43:30;97465.97;;;13.02;nan
19108;BME280;9686;48.832;9.126;2023-04-24T09:45:56;97468.44;;;13.06;nan
19108;BME280;9686;48.832;9.126;2023-04-24T09:48:36;97474.03;;;13.25;nan
19108;BME280;9686;48.832;9.126;2023-04-24T09:51:04;97467.59;;;13.06;nan
19108;BME280;9686;48.832;9.126;2023-04-24T09:53:32;97479.25;;;12.94;nan
19108;BME280;9686;48.832;9.126;2023-04-24T09:56:08;97491.38;;;12.96;nan
19108;BME280;9686;48.832;9.126;2023-04-24T09:58:35;97497.38;;;13.02;nan
19108;BME280;9686;48.832;9.126;2023-04-24T10:01:01;97511.44;;;12.96;nan
19108;BME280;9686;48.832;9.126;2023-04-24T10:03:30;97490.50;;;12.96;nan
19108;BME280;9686;48.832;9.126;2023-04-24T10:06:02;97489.25;;;13.11;nan
19108;BME280;9686;48.832;9.126;2023-04-24T10:08:33;97493.31;;;13.22;nan
19108;BME280;9686;48.832;9.126;2023-04-24T10:11:00;97473.78;;;13.34;nan
19108;BME280;9686;48.832;9.126;2023-04-24T10:13:25;97489.78;;;13.54;nan
19108;BME280;9686;48.832;9.126;2023-04-24T10:15:51;97483.72;;;13.82;nan
19108;BME280;9686;48.832;9.126;2023-04-24T10:18:16;97496.75;;;13.83;nan
19108;BME280;9686;48.832;9.126;2023-04-24T10:20:42;97488.25;;;14.03;nan
19108;BME280;9686;48.832;9.126;2023-04-24T10:23:08;97492.34;;;14.13;nan
19108;BME280;9686;48.832;9.126;2023-04-24T10:25:34;97494.34;;;14.05;nan
19108;BME280;9686;48.832;9.126;2023-04-24T10:28:00;97486.84;;;13.93;nan
19108;BME280;9686;48.832;9.126;2023-04-24T10:30:28;97498.41;;;13.58;nan
19108;BME280;9686;48.832;9.126;2023-04-24T10:32:54;97503.94;;;13.47;nan
19108;BME280;9686;48.832;9.126;2023-04-24T10:35:21;97504.88;;;13.45;nan
19108;BME280;9686;48.832;9.126;2023-04-24T10:37:54;97500.22;;;13.25;nan
19108;BME280;9686;48.832;9.126;2023-04-24T10:40:26;97507.56;;;13.11;nan
19108;BME280;9686;48.832;9.126;2023-04-24T10:42:52;97516.13;;;13.17;nan
19108;BME280;9686;48.832;9.126;2023-04-24T10:45:22;97507.09;;;13.29;nan
19108;BME280;9686;48.832;9.126;2023-04-24T10:47:58;97513.50;;;13.48;nan
19108;BME280;9686;48.832;9.126;2023-04-24T10:50:30;97505.25;;;13.62;nan
19108;BME280;9686;48.832;9.126;2023-04-24T10:53:11;97520.22;;;13.58;nan
19108;BME280;9686;48.832;9.126;2023-04-24T10:58:09;97519.91;;;13.38;nan
19108;BME280;9686;48.832;9.126;2023-04-24T11:00:40;97520.47;;;13.49;nan
19108;BME280;9686;48.832;9.126;2023-04-24T11:03:22;97518.78;;;13.47;nan
19108;BME280;9686;48.832;9.126;2023-04-24T11:06:08;97533.22;;;13.31;nan
19108;BME280;9686;48.832;9.126;2023-04-24T11:08:44;97531.69;;;13.22;nan
19108;BME280;9686;48.832;9.126;2023-04-24T11:11:12;97534.41;;;13.19;nan
19108;BME280;9686;48.832;9.126;2023-04-24T11:18:52;97545.69;;;13.52;nan
19108;BME280;9686;48.832;9.126;2023-04-24T11:21:24;97539.88;;;13.72;nan
19108;BME280;9686;48.832;9.126;2023-04-24T11:23:50;97550.63;;;13.92;nan
19108;BME280;9686;48.832;9.126;2023-04-24T11:26:21;97535.72;;;14.22;nan
19108;BME280;9686;48.832;9.126;2023-04-24T11:28:50;97535.03;;;14.45;nan
19108;BME280;9686;48.832;9.126;2023-04-24T11:31:35;97544.47;;;14.50;nan
19108;BME280;9686;48.832;9.126;2023-04-24T11:34:13;97542.91;;;14.45;nan
19108;BME280;9686;48.832;9.126;2023-04-24T11:36:40;97548.00;;;14.49;nan
19108;BME280;9686;48.832;9.126;2023-04-24T11:39:07;97539.66;;;14.37;nan
19108;BME280;9686;48.832;9.126;2023-04-24T11:41:33;97551.47;;;14.22;nan
19108;BME280;9686;48.832;9.126;2023-04-24T11:43:59;97561.03;;;13.95;nan
19108;BME280;9686;48.832;9.126;2023-04-24T11:46:29;97568.34;;;13.84;nan
19108;BME280;9686;48.832;9.126;2023-04-24T11:48:56;97569.84;;;13.63;nan
19108;BME280;9686;48.832;9.126;2023-04-24T11:51:22;97560.69;;;13.76;nan
19108;BME280;9686;48.832;9.126;2023-04-24T11:53:49;97568.16;;;13.90;nan
19108;BME280;9686;48.832;9.126;2023-04-24T11:56:17;97559.78;;;14.36;nan
19108;BME280;9686;48.832;9.126;2023-04-24T11:58:44;97564.81;;;14.70;nan
19108;BME280;9686;48.832;9.126;2023-04-24T12:01:09;97551.50;;;15.01;nan
19108;BME280;9686;48.832;9.126;2023-04-24T12:03:35;97548.84;;;15.76;nan
19108;BME280;9686;48.832;9.126;2023-04-24T12:06:07;97551.06;;;16.10;nan
19108;BME280;9686;48.832;9.126;2023-04-24T12:08:33;97561.44;;;15.68;nan
19108;BME280;9686;48.832;9.126;2023-04-24T12:11:03;97558.22;;;15.10;nan
19108;BME280;9686;48.832;9.126;2023-04-24T12:13:30;97564.09;;;14.65;nan
19108;BME280;9686;48.832;9.126;2023-04-24T12:15:57;97573.88;;;14.32;nan
19108;BME280;9686;48.832;9.126;2023-04-24T12:18:23;97571.22;;;14.06;nan
19108;BME280;9686;48.832;9.126;2023-04-24T12:20:49;97564.72;;;14.17;nan
19108;BME280;9686;48.832;9.126;2023-04-24T12:23:14;97573.13;;;14.27;nan
19108;BME280;9686;48.832;9.126;2023-04-24T12:25:39;97568.34;;;14.41;nan
19108;BME280;9686;48.832;9.126;2023-04-24T12:30:33;97580.59;;;14.41;nan
19108;BME280;9686;48.832;9.126;2023-04-24T12:32:59;97581.94;;;13.97;nan
19108;BME280;9686;48.832;9.126;2023-04-24T12:35:27;97583.56;;;13.71;nan
19108;BME280;9686;48.832;9.126;2023-04-24T12:37:53;97563.41;;;13.73;nan
19108;BME280;9686;48.832;9.126;2023-04-24T12:40:19;97581.47;;;13.84;nan
19108;BME280;9686;48.832;9.126;2023-04-24T12:42:49;97584.13;;;13.82;nan
19108;BME280;9686;48.832;9.126;2023-04-24T12:45:17;97568.41;;;13.82;nan
19108;BME280;9686;48.832;9.126;2023-04-24T12:47:44;97572.50;;;13.91;nan
19108;BME280;9686;48.832;9.126;2023-04-24T12:50:11;97580.78;;;13.76;nan
19108;BME280;9686;48.832;9.126;2023-04-24T12:52:37;97576.75;;;13.66;nan
19108;BME280;9686;48.832;9.126;2023-04-24T12:55:04;97597.63;;;13.36;nan
19108;BME280;9686;48.832;9.126;2023-04-24T12:57:33;97597.22;;;13.19;nan
19108;BME280;9686;48.832;9.126;2023-04-24T12:59:58;97601.31;;;12.93;nan
19108;BME280;9686;48.832;9.126;2023-04-24T13:02:24;97598.97;;;13.18;nan
19108;BME280;9686;48.832;9.126;2023-04-24T13:04:51;97593.31;;;13.35;nan
19108;BME280;9686;48.832;9.126;2023-04-24T13:07:17;97599.94;;;13.79;nan
19108;BME280;9686;48.832;9.126;2023-04-24T13:09:43;97589.22;;;13.87;nan
19108;BME280;9686;48.832;9.126;2023-04-24T13:12:09;97593.88;;;14.07;nan
19108;BME280;9686;48.832;9.126;2023-04-24T13:14:35;97596.63;;;14.30;nan
19108;BME280;9686;48.832;9.126;2023-04-24T13:17:01;97601.50;;;14.14;nan
19108;BME280;9686;48.832;9.126;2023-04-24T13:19:27;97596.19;;;13.88;nan
19108;BME280;9686;48.832;9.126;2023-04-24T13:21:54;97587.91;;;14.02;nan
19108;BME280;9686;48.832;9.126;2023-04-24T13:24:20;97591.22;;;14.08;nan
19108;BME280;9686;48.832;9.126;2023-04-24T13:26:46;97593.84;;;14.08;nan
19108;BME280;9686;48.832;9.126;2023-04-24T13:29:11;97587.25;;;14.23;nan
19108;BME280;9686;48.832;9.126;2023-04-24T13:31:36;97587.34;;;14.20;nan
19108;BME280;9686;48.832;9.126;2023-04-24T13:34:02;97588.81;;;14.01;nan
19108;BME280;9686;48.832;9.126;2023-04-24T13:36:28;97575.41;;;13.82;nan
19108;BME280;9686;48.832;9.126;2023-04-24T13:38:53;97586.91;;;13.76;nan